Time;durP1;ratioP1;P1;durP2;ratioP2;P2;SDS_P1;SDS_P2;PMS_P1;PMS_P2;Temp;Humidity;BMP_temperature;BMP_pressure;BME280_temperature;BME280_humidity;BME280_pressure;Samples;Min_cycle;Max_cycle;Signal;HPM_P1;HPM_P2
2021/08/25 00:00:20;;;;;;;4.90;3.20;;;17.80;87.20;;;;;;5056248;28;20024;-83
2021/08/25 00:02:46;;;;;;;4.18;2.53;;;17.80;87.00;;;;;;5062172;28;20039;-84
2021/08/25 00:05:12;;;;;;;4.93;2.55;;;17.70;87.10;;;;;;5061922;28;20024;-84
2021/08/25 00:07:37;;;;;;;5.85;3.20;;;17.70;87.40;;;;;;5042480;28;20045;-83
2021/08/25 00:10:04;;;;;;;4.32;2.65;;;17.60;87.40;;;;;;5040608;28;20032;-83
2021/08/25 00:12:30;;;;;;;6.32;3.20;;;17.60;87.50;;;;;;5050015;28;20072;-84
2021/08/25 00:14:56;;;;;;;5.00;3.28;;;17.60;87.20;;;;;;5021510;28;20048;-83
2021/08/25 00:17:22;;;;;;;7.63;3.28;;;17.50;86.90;;;;;;5066604;28;20020;-83
2021/08/25 00:19:47;;;;;;;5.93;2.90;;;17.50;87.30;;;;;;5046162;28;20016;-83
2021/08/25 00:22:14;;;;;;;5.95;3.42;;;17.50;87.90;;;;;;5044775;28;20155;-84
2021/08/25 00:24:40;;;;;;;6.55;3.72;;;17.40;87.80;;;;;;5055344;28;20111;-83
2021/08/25 00:27:06;;;;;;;7.20;4.00;;;17.40;87.80;;;;;;5023982;28;20025;-82
2021/08/25 00:29:33;;;;;;;6.97;4.00;;;17.30;87.90;;;;;;5037063;28;20477;-83
2021/08/25 00:31:59;;;;;;;6.25;3.50;;;17.30;88.30;;;;;;5045424;28;20028;-83
2021/08/25 00:34:24;;;;;;;5.78;3.33;;;17.30;88.10;;;;;;5060480;28;20044;-83
2021/08/25 00:36:50;;;;;;;6.88;3.47;;;17.30;88.30;;;;;;5023710;28;20496;-84
2021/08/25 00:39:16;;;;;;;6.60;3.78;;;17.20;88.40;;;;;;5062241;28;20028;-83
2021/08/25 00:41:41;;;;;;;6.57;3.50;;;17.20;88.60;;;;;;5041684;28;20465;-83
2021/08/25 00:44:07;;;;;;;7.03;3.90;;;17.20;88.80;;;;;;5036747;28;20029;-83
2021/08/25 00:46:35;;;;;;;6.82;3.70;;;17.10;88.90;;;;;;5040242;28;20033;-83
2021/08/25 00:49:01;;;;;;;6.35;3.50;;;17.10;88.90;;;;;;5045443;28;20063;-83
2021/08/25 00:51:27;;;;;;;6.20;3.95;;;17.10;89.10;;;;;;5070358;28;20511;-82
2021/08/25 00:53:53;;;;;;;5.50;3.72;;;17.10;89.30;;;;;;5074389;28;20068;-84
2021/08/25 00:56:21;;;;;;;6.55;3.92;;;17.00;89.20;;;;;;5074490;28;20029;-83
2021/08/25 00:58:46;;;;;;;6.10;3.50;;;17.00;89.50;;;;;;5070354;28;20028;-83
2021/08/25 01:01:24;;;;;;;6.07;3.63;;;17.00;89.60;;;;;;5028879;28;20036;-83
2021/08/25 01:03:54;;;;;;;7.07;3.80;;;17.00;89.60;;;;;;5069047;28;20032;-83
2021/08/25 01:06:24;;;;;;;7.28;3.97;;;17.00;89.70;;;;;;5044864;28;20412;-83
2021/08/25 01:08:51;;;;;;;7.85;3.85;;;16.90;89.90;;;;;;5054047;28;20024;-84
2021/08/25 01:11:17;;;;;;;7.13;4.10;;;16.90;89.90;;;;;;5063079;28;20021;-83
2021/08/25 01:13:43;;;;;;;7.63;4.60;;;16.90;90.00;;;;;;5059698;28;20036;-82
2021/08/25 01:16:10;;;;;;;7.40;4.55;;;16.80;89.90;;;;;;5049402;28;20032;-83
2021/08/25 01:18:37;;;;;;;7.45;4.18;;;16.80;90.10;;;;;;5058891;28;20025;-84
2021/08/25 01:21:04;;;;;;;9.00;4.40;;;16.80;90.10;;;;;;5055756;28;20025;-84
2021/08/25 01:23:40;;;;;;;6.78;3.90;;;16.80;90.30;;;;;;5055952;28;20445;-84
2021/08/25 01:26:06;;;;;;;7.07;4.00;;;16.80;90.40;;;;;;5055856;28;20358;-83
2021/08/25 01:28:38;;;;;;;8.52;4.30;;;16.80;90.50;;;;;;5055850;28;20036;-84
2021/08/25 01:31:05;;;;;;;6.90;4.32;;;16.70;90.20;;;;;;5063756;28;20476;-83
2021/08/25 01:33:30;;;;;;;7.15;4.30;;;16.70;90.30;;;;;;5038697;28;20040;-83
2021/08/25 01:35:57;;;;;;;8.70;4.78;;;16.70;90.20;;;;;;5018799;28;20037;-83
2021/08/25 01:38:46;;;;;;;8.40;4.47;;;16.70;90.20;;;;;;5064043;28;20024;-83
2021/08/25 01:41:12;;;;;;;8.00;4.75;;;16.60;90.20;;;;;;5071308;28;20027;-83
2021/08/25 01:43:37;;;;;;;7.38;4.05;;;16.60;90.40;;;;;;5034240;28;20033;-83
2021/08/25 01:46:03;;;;;;;6.43;3.90;;;16.50;90.40;;;;;;5055718;28;20103;-82
2021/08/25 01:48:33;;;;;;;9.80;4.70;;;16.50;90.30;;;;;;5039089;28;20052;-83
2021/08/25 01:50:59;;;;;;;9.30;4.45;;;16.50;90.40;;;;;;5038463;28;20080;-85
2021/08/25 01:53:25;;;;;;;8.35;4.72;;;16.40;90.60;;;;;;5038530;28;20039;-83
2021/08/25 01:55:51;;;;;;;7.57;4.07;;;16.40;90.50;;;;;;5055314;28;20033;-83
2021/08/25 01:58:16;;;;;;;7.72;4.80;;;16.40;90.50;;;;;;5055313;28;20037;-82
2021/08/25 02:00:42;;;;;;;8.98;4.53;;;16.40;90.60;;;;;;5053386;28;20025;-83
2021/08/25 02:03:08;;;;;;;9.48;4.88;;;16.30;90.80;;;;;;5026015;28;20033;-83
2021/08/25 02:05:34;;;;;;;8.80;4.97;;;16.40;90.90;;;;;;5055279;28;20033;-82
2021/08/25 02:07:59;;;;;;;7.32;4.13;;;16.30;90.80;;;;;;5038077;28;20112;-82
2021/08/25 02:10:25;;;;;;;9.30;4.88;;;16.30;91.00;;;;;;5055415;28;20064;-83
2021/08/25 02:12:51;;;;;;;7.50;4.47;;;16.30;90.90;;;;;;5058859;28;20045;-83
2021/08/25 02:15:16;;;;;;;8.57;4.65;;;16.30;91.20;;;;;;5013030;28;20043;-83
2021/08/25 02:17:42;;;;;;;7.93;4.20;;;16.20;90.90;;;;;;5038334;28;20429;-83
2021/08/25 02:20:08;;;;;;;7.03;4.32;;;16.20;91.00;;;;;;5038329;28;20037;-83
2021/08/25 02:22:34;;;;;;;5.72;3.78;;;16.20;91.10;;;;;;5038414;28;20025;-83
2021/08/25 02:25:00;;;;;;;10.98;4.32;;;16.20;91.20;;;;;;5067307;28;20108;-83
2021/08/25 02:27:25;;;;;;;6.47;3.92;;;16.10;91.20;;;;;;5037089;28;20025;-83
2021/08/25 02:29:55;;;;;;;9.07;4.88;;;16.10;91.20;;;;;;5070713;28;20021;-82
2021/08/25 02:32:25;;;;;;;8.20;4.68;;;16.10;91.40;;;;;;5072417;28;20477;-82
2021/08/25 02:34:52;;;;;;;7.53;4.50;;;16.10;91.30;;;;;;5065970;28;20028;-82
2021/08/25 02:37:18;;;;;;;8.05;4.63;;;16.10;91.40;;;;;;5055585;28;20643;-84
2021/08/25 02:39:44;;;;;;;7.93;4.18;;;16.00;91.50;;;;;;5059994;28;20012;-86
2021/08/25 02:42:10;;;;;;;8.90;4.22;;;16.00;91.70;;;;;;5091103;28;20023;-83
2021/08/25 02:44:35;;;;;;;7.00;4.32;;;16.00;91.40;;;;;;5070156;28;20024;-83
2021/08/25 02:47:01;;;;;;;7.38;3.85;;;16.00;91.40;;;;;;5079566;28;20013;-85
2021/08/25 02:49:27;;;;;;;7.07;4.38;;;15.90;91.30;;;;;;5073778;28;20044;-85
2021/08/25 02:51:52;;;;;;;6.82;4.00;;;15.90;91.30;;;;;;5071477;28;20552;-83
2021/08/25 02:54:18;;;;;;;6.45;4.20;;;15.90;91.30;;;;;;5024025;28;20040;-82
2021/08/25 02:56:44;;;;;;;7.80;4.35;;;15.90;91.40;;;;;;5054765;28;20111;-82
2021/08/25 02:59:09;;;;;;;9.50;4.07;;;15.80;91.20;;;;;;5037468;28;20021;-82
2021/08/25 03:01:35;;;;;;;9.13;4.55;;;15.80;90.90;;;;;;5050148;28;20485;-82
2021/08/25 03:04:00;;;;;;;7.78;4.38;;;15.70;91.10;;;;;;5037521;28;20043;-83
2021/08/25 03:06:26;;;;;;;6.95;4.22;;;15.70;91.20;;;;;;5025593;28;20062;-83
2021/08/25 03:08:52;;;;;;;9.38;4.22;;;15.60;91.10;;;;;;5054203;28;20546;-82
2021/08/25 03:11:17;;;;;;;7.95;4.55;;;15.60;91.20;;;;;;5034059;28;20167;-82
2021/08/25 03:13:43;;;;;;;7.57;4.50;;;15.60;91.30;;;;;;5045608;28;20083;-82
2021/08/25 03:16:09;;;;;;;8.70;5.18;;;15.50;91.40;;;;;;5057613;28;20116;-82
2021/08/25 03:18:34;;;;;;;8.25;4.93;;;15.50;91.50;;;;;;5054137;28;20024;-83
2021/08/25 03:21:00;;;;;;;8.57;4.78;;;15.50;91.70;;;;;;5071690;28;20028;-82
2021/08/25 03:23:25;;;;;;;8.82;4.95;;;15.50;91.70;;;;;;5020673;28;20052;-82
2021/08/25 03:25:52;;;;;;;8.90;4.30;;;15.40;91.90;;;;;;5023304;28;20384;-82
2021/08/25 03:28:18;;;;;;;8.30;4.82;;;15.40;91.90;;;;;;5071822;28;20476;-82
2021/08/25 03:30:44;;;;;;;7.00;4.20;;;15.40;92.00;;;;;;5030124;28;20024;-81
2021/08/25 03:33:09;;;;;;;7.30;4.00;;;15.40;91.80;;;;;;5077175;28;20047;-83
2021/08/25 03:35:35;;;;;;;7.50;4.20;;;15.40;92.00;;;;;;5089342;28;20024;-83
2021/08/25 03:38:01;;;;;;;7.30;4.32;;;15.30;91.90;;;;;;5046296;28;20070;-84
2021/08/25 03:40:26;;;;;;;8.10;4.75;;;15.30;91.50;;;;;;5059030;28;20392;-84
2021/08/25 03:42:52;;;;;;;6.65;3.83;;;15.20;91.50;;;;;;5067371;28;20369;-83
2021/08/25 03:45:18;;;;;;;7.72;4.18;;;15.20;91.80;;;;;;5059692;28;20387;-83
2021/08/25 03:47:43;;;;;;;7.00;4.20;;;15.10;92.00;;;;;;5050049;28;20032;-81
2021/08/25 03:50:09;;;;;;;7.22;4.35;;;15.10;92.00;;;;;;5037821;28;20040;-82
2021/08/25 03:52:35;;;;;;;7.88;4.35;;;15.10;92.00;;;;;;5037406;28;20075;-82
2021/08/25 03:55:01;;;;;;;7.53;4.22;;;15.00;92.00;;;;;;5049354;28;20512;-83
2021/08/25 03:57:27;;;;;;;7.25;5.10;;;15.00;92.10;;;;;;5068107;28;20067;-83
2021/08/25 03:59:52;;;;;;;6.55;3.88;;;15.00;92.40;;;;;;5064684;28;20052;-82
2021/08/25 04:02:18;;;;;;;6.78;4.28;;;15.00;92.20;;;;;;5052745;28;20035;-83
2021/08/25 04:04:44;;;;;;;6.75;3.70;;;15.00;92.30;;;;;;5075839;28;20025;-82
2021/08/25 04:07:09;;;;;;;7.72;4.70;;;15.00;92.20;;;;;;5033974;28;20049;-83
2021/08/25 04:09:35;;;;;;;8.75;4.45;;;14.90;92.30;;;;;;5059228;28;20020;-83
2021/08/25 04:12:01;;;;;;;7.72;4.10;;;14.90;92.30;;;;;;5084637;28;20028;-82
2021/08/25 04:14:27;;;;;;;7.13;4.13;;;14.90;92.30;;;;;;5057250;28;20392;-82
2021/08/25 04:16:52;;;;;;;5.80;3.58;;;14.90;92.50;;;;;;5063306;28;20040;-82
2021/08/25 04:19:18;;;;;;;8.52;3.95;;;14.90;92.50;;;;;;5027157;28;20025;-82
2021/08/25 04:21:44;;;;;;;9.93;4.80;;;14.80;92.50;;;;;;5044707;28;20028;-83
2021/08/25 04:24:09;;;;;;;7.57;4.38;;;14.80;92.50;;;;;;5030627;28;20032;-83
2021/08/25 04:26:35;;;;;;;4.68;2.78;;;14.80;92.60;;;;;;5071483;28;20025;-83
2021/08/25 04:29:00;;;;;;;4.93;2.83;;;14.80;92.20;;;;;;5029129;28;20028;-82
2021/08/25 04:31:26;;;;;;;4.68;2.85;;;14.70;92.40;;;;;;5062737;28;20028;-84
2021/08/25 04:33:52;;;;;;;7.03;2.70;;;14.60;92.60;;;;;;5065762;28;20041;-83
2021/08/25 04:36:17;;;;;;;4.55;3.03;;;14.60;92.60;;;;;;5037165;28;20032;-83
2021/08/25 04:38:43;;;;;;;6.78;3.70;;;14.60;92.90;;;;;;5053875;28;20032;-83
2021/08/25 04:41:10;;;;;;;7.10;3.65;;;14.60;93.00;;;;;;5061657;28;20397;-83
2021/08/25 04:43:36;;;;;;;7.32;3.45;;;14.60;92.90;;;;;;5028172;28;20040;-83
2021/08/25 04:46:02;;;;;;;8.85;3.55;;;14.50;92.90;;;;;;5057117;28;20036;-83
2021/08/25 04:48:27;;;;;;;6.05;3.88;;;14.60;93.00;;;;;;5029731;28;20033;-83
2021/08/25 04:50:53;;;;;;;5.93;3.60;;;14.60;92.90;;;;;;5044034;28;20106;-83
2021/08/25 04:53:19;;;;;;;6.20;3.58;;;14.50;93.00;;;;;;5040602;28;20091;-83
2021/08/25 04:55:45;;;;;;;8.27;3.90;;;14.50;93.30;;;;;;5070672;28;20050;-83
2021/08/25 04:58:10;;;;;;;9.10;4.85;;;14.50;93.40;;;;;;5036687;28;20029;-84
2021/08/25 05:00:36;;;;;;;7.72;4.25;;;14.50;93.40;;;;;;5030696;28;20396;-82
2021/08/25 05:03:02;;;;;;;5.97;3.90;;;14.50;93.50;;;;;;5043283;28;20481;-83
2021/08/25 05:05:28;;;;;;;7.32;4.03;;;14.50;93.60;;;;;;5040800;28;20400;-83
2021/08/25 05:07:53;;;;;;;7.20;4.25;;;14.50;93.70;;;;;;5056077;28;20079;-84
2021/08/25 05:10:19;;;;;;;10.35;4.35;;;14.50;93.70;;;;;;5036167;28;20132;-82
2021/08/25 05:12:45;;;;;;;6.72;3.83;;;14.50;93.70;;;;;;5072222;28;20032;-83
2021/08/25 05:15:12;;;;;;;8.82;4.53;;;14.50;93.60;;;;;;5086748;28;20451;-83
2021/08/25 05:17:37;;;;;;;5.20;3.25;;;14.50;93.70;;;;;;5074354;28;20028;-83
2021/08/25 05:20:05;;;;;;;8.35;4.10;;;14.50;93.60;;;;;;5041866;28;20021;-82
2021/08/25 05:22:32;;;;;;;7.43;4.13;;;14.50;93.80;;;;;;5055974;28;20386;-85
2021/08/25 05:24:57;;;;;;;7.03;3.70;;;14.50;93.90;;;;;;5055267;28;20040;-83
2021/08/25 05:27:23;;;;;;;5.63;3.55;;;14.50;94.00;;;;;;5013274;28;20021;-83
2021/08/25 05:29:49;;;;;;;6.88;3.63;;;14.50;94.10;;;;;;5061186;28;20044;-83
2021/08/25 05:32:14;;;;;;;6.38;3.35;;;14.50;94.20;;;;;;5058842;28;20349;-83
2021/08/25 05:34:40;;;;;;;5.70;3.53;;;14.50;94.40;;;;;;5048905;28;20042;-83
2021/08/25 05:37:06;;;;;;;6.53;3.95;;;14.60;94.30;;;;;;5059025;28;20040;-83
2021/08/25 05:39:31;;;;;;;6.60;3.35;;;14.60;94.30;;;;;;5059270;28;20429;-83
2021/08/25 05:41:57;;;;;;;6.55;3.45;;;14.60;94.50;;;;;;5044515;28;20035;-83
2021/08/25 05:44:23;;;;;;;7.10;3.65;;;14.60;94.70;;;;;;5053551;28;20032;-84
2021/08/25 05:46:48;;;;;;;6.07;3.53;;;14.60;94.60;;;;;;5039497;28;20392;-83
2021/08/25 05:49:14;;;;;;;6.22;3.30;;;14.70;94.70;;;;;;5039040;28;20020;-81
2021/08/25 05:51:39;;;;;;;5.72;3.50;;;14.60;94.60;;;;;;5052825;28;20087;-82
2021/08/25 05:54:05;;;;;;;7.70;3.60;;;14.70;94.70;;;;;;5052802;28;20031;-82
2021/08/25 05:56:31;;;;;;;5.78;3.33;;;14.70;94.70;;;;;;5056064;28;20433;-82
2021/08/25 05:58:56;;;;;;;6.18;3.60;;;14.80;94.70;;;;;;5047355;28;20119;-83
2021/08/25 06:01:24;;;;;;;5.95;3.58;;;14.80;94.70;;;;;;5062338;28;20052;-83
2021/08/25 06:03:50;;;;;;;5.95;3.60;;;14.80;94.80;;;;;;5009580;28;20489;-83
2021/08/25 06:06:15;;;;;;;8.05;4.20;;;14.80;94.80;;;;;;5055858;28;20028;-84
2021/08/25 06:08:41;;;;;;;5.45;3.40;;;14.90;94.80;;;;;;5046111;28;20032;-82
2021/08/25 06:11:07;;;;;;;6.43;3.83;;;14.90;94.80;;;;;;5040031;28;20025;-82
2021/08/25 06:13:33;;;;;;;6.13;3.72;;;15.00;94.90;;;;;;5040208;28;20136;-82
2021/08/25 06:15:58;;;;;;;6.63;4.05;;;15.00;94.80;;;;;;5033818;28;20040;-82
2021/08/25 06:18:24;;;;;;;6.53;4.05;;;15.00;94.80;;;;;;5058571;28;20066;-83
2021/08/25 06:20:51;;;;;;;6.72;4.07;;;15.10;94.80;;;;;;5034448;28;20025;-82
2021/08/25 06:23:17;;;;;;;6.68;4.53;;;15.10;94.80;;;;;;5043066;28;20033;-83
2021/08/25 06:25:43;;;;;;;6.88;4.63;;;15.10;94.80;;;;;;5072278;28;20021;-82
2021/08/25 06:28:08;;;;;;;7.53;4.40;;;15.20;94.80;;;;;;5059270;28;20039;-82
2021/08/25 06:30:34;;;;;;;7.40;4.55;;;15.20;94.80;;;;;;5072439;28;20048;-85
2021/08/25 06:33:00;;;;;;;7.57;4.85;;;15.20;94.80;;;;;;5084492;28;20053;-83
2021/08/25 06:35:26;;;;;;;7.78;4.90;;;15.30;94.80;;;;;;5049899;28;20496;-82
2021/08/25 06:37:51;;;;;;;6.32;4.10;;;15.30;94.70;;;;;;5056381;28;20024;-82
2021/08/25 06:40:17;;;;;;;10.20;4.78;;;15.30;94.70;;;;;;5053828;28;20028;-82
2021/08/25 06:42:43;;;;;;;6.22;4.32;;;15.40;94.80;;;;;;5046531;28;20448;-86
2021/08/25 06:45:09;;;;;;;7.45;3.95;;;15.40;94.80;;;;;;5053870;28;20530;-88
2021/08/25 06:47:35;;;;;;;6.93;4.57;;;15.40;94.80;;;;;;5057384;28;20103;-88
2021/08/25 06:50:01;;;;;;;6.75;3.92;;;15.50;94.80;;;;;;5058088;28;20145;-88
2021/08/25 06:52:27;;;;;;;6.97;4.20;;;15.50;94.80;;;;;;5023472;28;20028;-89
2021/08/25 06:54:53;;;;;;;6.45;4.25;;;15.60;94.80;;;;;;5074749;28;20029;-82
2021/08/25 06:57:19;;;;;;;7.32;4.57;;;15.60;94.80;;;;;;5054304;28;20566;-82
2021/08/25 06:59:44;;;;;;;5.88;3.90;;;15.70;94.90;;;;;;5038426;28;20553;-82
2021/08/25 07:02:10;;;;;;;7.30;4.32;;;15.70;94.90;;;;;;5019803;28;20037;-83
2021/08/25 07:04:35;;;;;;;6.28;4.10;;;15.80;94.90;;;;;;5051893;28;20032;-84
2021/08/25 07:07:01;;;;;;;6.47;4.43;;;15.80;95.00;;;;;;5015451;28;20053;-84
2021/08/25 07:09:27;;;;;;;6.63;3.92;;;15.90;95.00;;;;;;5036131;28;20029;-83
2021/08/25 07:11:53;;;;;;;7.75;4.35;;;16.00;95.10;;;;;;5034059;28;20025;-83
2021/08/25 07:14:18;;;;;;;7.32;4.05;;;16.00;95.10;;;;;;4998465;28;20505;-82
2021/08/25 07:16:44;;;;;;;6.78;4.18;;;16.10;95.10;;;;;;5023055;28;20036;-82
2021/08/25 07:19:09;;;;;;;6.43;3.97;;;16.10;95.20;;;;;;5002219;28;20062;-82
2021/08/25 07:21:35;;;;;;;6.97;4.40;;;16.20;95.20;;;;;;5035004;28;20052;-82
2021/08/25 07:24:03;;;;;;;7.45;4.47;;;16.30;95.30;;;;;;5014799;28;20168;-81
2021/08/25 07:26:29;;;;;;;7.43;5.07;;;16.30;95.30;;;;;;5033449;28;20049;-82
2021/08/25 07:28:54;;;;;;;7.72;5.07;;;16.40;95.20;;;;;;5051072;28;20496;-80
2021/08/25 07:31:20;;;;;;;7.18;5.05;;;16.40;95.20;;;;;;5034635;28;20049;-82
2021/08/25 07:33:47;;;;;;;8.48;4.53;;;16.50;95.20;;;;;;5024172;28;20045;-82
2021/08/25 07:36:12;;;;;;;7.43;4.80;;;16.60;95.50;;;;;;5026817;28;20025;-82
2021/08/25 07:38:38;;;;;;;7.18;4.78;;;16.60;95.30;;;;;;5052470;28;20025;-83
2021/08/25 07:41:04;;;;;;;8.25;5.65;;;16.70;95.20;;;;;;5018057;28;20827;-82
2021/08/25 07:43:30;;;;;;;8.68;5.10;;;16.80;95.20;;;;;;5034552;28;20108;-82
2021/08/25 07:45:56;;;;;;;8.00;4.85;;;16.90;95.20;;;;;;5052406;28;20105;-83
2021/08/25 07:48:21;;;;;;;6.60;4.40;;;16.90;95.20;;;;;;5034375;28;20033;-81
2021/08/25 07:50:49;;;;;;;7.45;4.38;;;17.00;95.20;;;;;;5034164;28;20033;-82
2021/08/25 07:53:16;;;;;;;7.90;4.80;;;17.00;95.20;;;;;;5034790;28;20044;-81
2021/08/25 07:55:42;;;;;;;7.72;4.28;;;17.10;95.20;;;;;;5034894;28;20037;-81
2021/08/25 07:58:07;;;;;;;7.45;4.72;;;17.20;95.20;;;;;;5020637;28;20030;-82
2021/08/25 08:00:33;;;;;;;6.45;3.83;;;17.30;95.20;;;;;;5034064;28;20021;-82
2021/08/25 08:02:58;;;;;;;7.68;4.65;;;17.40;95.20;;;;;;5034140;28;20071;-83
2021/08/25 08:05:24;;;;;;;6.40;4.00;;;17.50;95.20;;;;;;5028974;28;20462;-82
2021/08/25 08:07:50;;;;;;;7.22;4.05;;;17.60;95.30;;;;;;5059388;28;20071;-86
2021/08/25 08:10:16;;;;;;;6.53;4.07;;;17.60;95.20;;;;;;5055810;28;20048;-86
2021/08/25 08:12:42;;;;;;;6.78;4.03;;;17.70;95.10;;;;;;5038134;28;20066;-86
2021/08/25 08:15:11;;;;;;;6.10;3.83;;;17.80;94.90;;;;;;5059213;28;20024;-89
2021/08/25 08:17:39;;;;;;;5.68;3.72;;;17.80;94.80;;;;;;5043921;28;20035;-86
2021/08/25 08:20:05;;;;;;;6.05;4.03;;;17.90;94.70;;;;;;5068755;28;20086;-86
2021/08/25 08:22:31;;;;;;;5.55;3.80;;;18.00;94.60;;;;;;5040967;28;20024;-85
2021/08/25 08:24:57;;;;;;;7.55;4.45;;;18.10;94.40;;;;;;5060065;28;20036;-86
2021/08/25 08:27:22;;;;;;;6.43;3.90;;;18.20;94.30;;;;;;5060975;28;20047;-86
2021/08/25 08:29:48;;;;;;;6.35;4.07;;;18.30;94.20;;;;;;5079848;28;20122;-86
2021/08/25 08:32:13;;;;;;;6.90;3.78;;;18.40;94.10;;;;;;5078914;28;20471;-87
2021/08/25 08:34:39;;;;;;;6.35;3.70;;;18.50;94.10;;;;;;5093332;28;20519;-86
2021/08/25 08:37:05;;;;;;;6.75;4.13;;;18.60;94.00;;;;;;5080181;28;20035;-87
2021/08/25 08:39:31;;;;;;;7.47;4.38;;;18.70;93.80;;;;;;5098250;28;20033;-89
2021/08/25 08:41:57;;;;;;;5.80;3.50;;;18.70;93.70;;;;;;5079582;28;20072;-87
2021/08/25 08:44:26;;;;;;;5.43;3.35;;;18.80;93.60;;;;;;5061966;28;20535;-86
2021/08/25 08:46:51;;;;;;;4.88;2.70;;;19.00;93.60;;;;;;5084949;28;20074;-86
2021/08/25 08:49:17;;;;;;;4.80;3.03;;;19.10;93.60;;;;;;5062288;28;20024;-86
2021/08/25 08:51:44;;;;;;;4.93;2.90;;;19.20;93.60;;;;;;5078312;28;20027;-87
2021/08/25 08:54:10;;;;;;;4.22;2.60;;;19.30;93.70;;;;;;5096438;28;20032;-86
2021/08/25 08:56:36;;;;;;;4.38;2.70;;;19.40;93.70;;;;;;5045304;28;20047;-87
2021/08/25 08:59:02;;;;;;;5.07;2.60;;;19.50;93.80;;;;;;5064253;28;20460;-86
2021/08/25 09:01:30;;;;;;;4.20;2.55;;;19.60;93.50;;;;;;5095663;28;20020;-86
2021/08/25 09:03:55;;;;;;;4.35;2.60;;;19.70;93.40;;;;;;5077984;28;20024;-87
2021/08/25 09:06:40;;;;;;;5.95;2.80;;;19.80;93.30;;;;;;5095139;28;20544;-87
2021/08/25 09:09:06;;;;;;;4.93;2.47;;;19.90;93.20;;;;;;5063293;28;20040;-87
2021/08/25 09:11:32;;;;;;;3.85;2.30;;;20.00;93.20;;;;;;5060630;28;20519;-85
2021/08/25 09:14:09;;;;;;;5.10;2.45;;;20.10;93.10;;;;;;5067554;28;20037;-87
2021/08/25 09:16:36;;;;;;;3.63;2.20;;;20.20;93.10;;;;;;5091574;28;20032;-88
2021/08/25 09:19:05;;;;;;;4.22;2.53;;;20.30;93.00;;;;;;5075827;28;20024;-88
2021/08/25 09:21:39;;;;;;;4.15;2.30;;;20.40;92.70;;;;;;5072265;28;20031;-87
2021/08/25 09:24:06;;;;;;;4.38;2.50;;;20.50;92.60;;;;;;5087767;28;20046;-87
2021/08/25 09:26:38;;;;;;;3.63;2.28;;;20.50;92.60;;;;;;5080331;28;20020;-85
2021/08/25 09:29:21;;;;;;;4.15;2.13;;;20.60;92.40;;;;;;5087433;28;20027;-85
2021/08/25 09:31:48;;;;;;;3.55;2.33;;;20.70;92.40;;;;;;5076254;28;20024;-84
2021/08/25 09:34:31;;;;;;;4.05;2.15;;;20.80;92.00;;;;;;5059861;28;20032;-84
2021/08/25 09:37:06;;;;;;;3.13;1.98;;;20.90;91.40;;;;;;5060506;28;20024;-84
2021/08/25 09:39:32;;;;;;;4.05;2.40;;;21.00;91.40;;;;;;5075889;28;20029;-83
2021/08/25 09:41:58;;;;;;;4.88;2.47;;;21.00;91.40;;;;;;5064550;28;20024;-83
2021/08/25 09:44:23;;;;;;;3.70;2.20;;;21.10;91.30;;;;;;5093922;28;20374;-85
2021/08/25 09:46:50;;;;;;;3.95;2.53;;;21.20;91.10;;;;;;5076271;28;20025;-84
2021/08/25 09:49:17;;;;;;;4.43;2.50;;;21.30;90.80;;;;;;5056168;28;20028;-84
2021/08/25 09:51:43;;;;;;;4.63;2.55;;;21.40;90.70;;;;;;5074346;28;20035;-84
2021/08/25 09:54:15;;;;;;;5.90;2.50;;;21.40;90.40;;;;;;5075853;28;20485;-84
2021/08/25 09:56:42;;;;;;;4.75;2.83;;;21.50;89.80;;;;;;5079781;28;20024;-85
2021/08/25 09:59:11;;;;;;;4.22;2.60;;;21.60;88.60;;;;;;5094210;28;20044;-84
2021/08/25 10:01:37;;;;;;;4.40;2.33;;;21.60;88.70;;;;;;5076432;28;20061;-84
2021/08/25 10:04:12;;;;;;;4.15;2.55;;;21.70;88.80;;;;;;5088040;28;20020;-86
2021/08/25 10:06:39;;;;;;;3.75;2.25;;;21.80;88.00;;;;;;5088722;28;20077;-83
2021/08/25 10:09:06;;;;;;;3.72;2.50;;;21.80;88.00;;;;;;5075262;28;20025;-84
2021/08/25 10:11:34;;;;;;;3.55;2.35;;;21.90;88.00;;;;;;5079878;28;20043;-83
2021/08/25 10:14:06;;;;;;;3.92;2.22;;;22.00;88.10;;;;;;5078855;28;20107;-85
2021/08/25 10:16:52;;;;;;;4.53;2.60;;;22.10;88.10;;;;;;5091884;28;20034;-83
2021/08/25 10:19:24;;;;;;;5.20;2.75;;;22.20;87.40;;;;;;5057620;28;20032;-83
2021/08/25 10:21:51;;;;;;;4.82;2.85;;;22.20;87.00;;;;;;5074288;28;20020;-86
2021/08/25 10:24:17;;;;;;;6.53;3.17;;;22.30;86.90;;;;;;5057849;28;20047;-84
2021/08/25 10:26:58;;;;;;;4.35;2.50;;;22.30;86.80;;;;;;5074512;28;20024;-86
2021/08/25 10:29:27;;;;;;;4.10;2.58;;;22.40;85.50;;;;;;5071934;28;20020;-84
2021/08/25 10:31:53;;;;;;;4.13;2.75;;;22.50;85.50;;;;;;5084372;28;20020;-85
2021/08/25 10:34:30;;;;;;;4.03;2.50;;;22.50;85.60;;;;;;5091030;28;20036;-84
2021/08/25 10:37:11;;;;;;;4.32;2.40;;;22.60;85.90;;;;;;5073943;28;20030;-83
2021/08/25 10:39:41;;;;;;;4.70;2.40;;;22.70;85.30;;;;;;5091280;28;20023;-85
2021/08/25 10:42:07;;;;;;;5.15;2.53;;;22.80;85.40;;;;;;5092086;28;20024;-84
2021/08/25 10:44:47;;;;;;;4.50;2.80;;;22.80;85.10;;;;;;5050210;28;20028;-84
2021/08/25 10:47:14;;;;;;;3.83;2.45;;;22.90;83.80;;;;;;5088221;28;20562;-85
2021/08/25 10:49:47;;;;;;;4.60;2.53;;;22.90;83.60;;;;;;5075423;28;20052;-85
2021/08/25 10:52:16;;;;;;;4.28;2.50;;;23.00;83.30;;;;;;5093591;28;20077;-85
2021/08/25 10:54:43;;;;;;;4.15;2.40;;;23.00;83.30;;;;;;5075330;28;20063;-85
2021/08/25 10:57:11;;;;;;;3.60;2.40;;;23.10;83.10;;;;;;5093010;28;20028;-83
2021/08/25 10:59:38;;;;;;;5.03;2.85;;;23.20;83.00;;;;;;5076118;28;20027;-86
2021/08/25 11:02:04;;;;;;;4.13;2.60;;;23.20;82.90;;;;;;5076094;28;20089;-86
2021/08/25 11:04:30;;;;;;;4.35;2.55;;;23.30;83.10;;;;;;5059766;28;20468;-88
2021/08/25 11:07:05;;;;;;;4.43;2.55;;;23.30;83.10;;;;;;5059675;28;20020;-88
2021/08/25 11:09:41;;;;;;;4.40;2.63;;;23.40;83.30;;;;;;5076732;28;20036;-88
2021/08/25 11:12:10;;;;;;;5.07;2.95;;;23.50;82.30;;;;;;5076554;28;20027;-88
2021/08/25 11:14:39;;;;;;;4.90;3.15;;;23.50;80.50;;;;;;5092496;28;20468;-87
2021/08/25 11:17:12;;;;;;;4.30;2.72;;;23.60;79.60;;;;;;5056673;28;20035;-86
2021/08/25 11:19:45;;;;;;;7.13;2.97;;;23.60;80.10;;;;;;5090567;28;20024;-87
2021/08/25 11:22:20;;;;;;;4.65;2.97;;;23.70;78.80;;;;;;5068305;28;20028;-88
2021/08/25 11:24:49;;;;;;;7.22;3.00;;;23.70;78.50;;;;;;5072272;28;20533;-87
2021/08/25 11:27:25;;;;;;;4.78;2.90;;;23.80;78.90;;;;;;5076290;28;20027;-87
2021/08/25 11:30:00;;;;;;;4.57;2.70;;;23.90;79.60;;;;;;5076231;28;20023;-88
2021/08/25 11:32:27;;;;;;;5.43;3.10;;;24.00;79.90;;;;;;5094561;28;20028;-87
2021/08/25 11:34:52;;;;;;;4.32;2.35;;;24.00;80.10;;;;;;5056096;28;20048;-87
2021/08/25 11:37:20;;;;;;;6.05;2.80;;;24.10;80.60;;;;;;5064031;28;20113;-88
2021/08/25 11:40:01;;;;;;;5.35;3.08;;;24.10;80.80;;;;;;5043407;28;20028;-87
2021/08/25 11:42:35;;;;;;;5.35;2.97;;;24.20;80.40;;;;;;5057066;28;20094;-88
2021/08/25 11:45:12;;;;;;;5.18;3.47;;;24.20;80.40;;;;;;5074492;28;20117;-89
2021/08/25 11:47:52;;;;;;;6.38;4.10;;;24.30;80.30;;;;;;5081824;28;20020;-88
2021/08/25 11:50:20;;;;;;;5.78;3.47;;;24.30;78.90;;;;;;5095829;28;20016;-89
2021/08/25 11:52:46;;;;;;;5.10;3.20;;;24.30;78.30;;;;;;5070097;28;20494;-90
2021/08/25 11:55:12;;;;;;;5.50;3.30;;;24.40;78.50;;;;;;5088305;28;20030;-90
2021/08/25 11:57:46;;;;;;;5.15;3.05;;;24.50;78.30;;;;;;5061855;28;20036;-89
2021/08/25 12:00:15;;;;;;;4.95;3.45;;;24.50;77.70;;;;;;5077413;28;20020;-90
2021/08/25 12:02:54;;;;;;;7.15;3.50;;;24.60;77.30;;;;;;5064676;28;20020;-90
2021/08/25 12:05:20;;;;;;;5.97;3.50;;;24.70;76.30;;;;;;5099547;28;20036;-90
2021/08/25 12:08:10;;;;;;;5.88;3.75;;;24.70;77.00;;;;;;5062825;28;20063;-87
2021/08/25 12:10:38;;;;;;;4.90;3.30;;;24.80;77.60;;;;;;5098683;28;20112;-88
2021/08/25 12:13:04;;;;;;;6.47;3.28;;;24.90;77.40;;;;;;5098108;28;20089;-88
2021/08/25 12:15:42;;;;;;;4.80;3.30;;;25.00;77.30;;;;;;5080192;28;20422;-88
2021/08/25 12:18:08;;;;;;;6.47;3.50;;;25.10;75.90;;;;;;5089052;28;20027;-84
2021/08/25 12:20:38;;;;;;;6.25;3.83;;;25.10;76.30;;;;;;5096192;28;20024;-81
2021/08/25 12:23:08;;;;;;;5.50;3.45;;;25.20;74.80;;;;;;5064871;28;20029;-82
2021/08/25 12:25:42;;;;;;;5.05;3.15;;;25.30;74.30;;;;;;5095726;28;20383;-81
2021/08/25 12:28:10;;;;;;;5.78;3.55;;;25.30;73.70;;;;;;5077580;28;20069;-81
2021/08/25 12:30:37;;;;;;;5.38;3.25;;;25.40;73.80;;;;;;5095684;28;20036;-82
2021/08/25 12:33:07;;;;;;;6.05;3.42;;;25.40;74.30;;;;;;5095758;28;20075;-81
2021/08/25 12:35:35;;;;;;;4.75;3.08;;;25.50;74.60;;;;;;5042488;28;20032;-81
2021/08/25 12:38:02;;;;;;;4.60;3.00;;;25.60;73.00;;;;;;5069532;28;20027;-83
2021/08/25 12:40:29;;;;;;;4.40;2.80;;;25.60;72.80;;;;;;5065615;28;20044;-81
2021/08/25 12:42:56;;;;;;;4.93;3.20;;;25.70;73.60;;;;;;5069098;28;20036;-81
2021/08/25 12:45:22;;;;;;;5.88;3.53;;;25.70;73.90;;;;;;5095293;28;20532;-83